Time;durP1;ratioP1;P1;durP2;ratioP2;P2;SDS_P1;SDS_P2;PMS_P1;PMS_P2;Temp;Humidity;BMP_temperature;BMP_pressure;BME280_temperature;BME280_humidity;BME280_pressure;Samples;Min_cycle;Max_cycle;Signal;HPM_P1;HPM_P2
2023/10/29 00:00:19;;;;;;;23.40;14.10;;;;;;;8.90;100.00;99764.41;107414;1273;95910;-78
2023/10/29 00:03:25;;;;;;;21.20;13.90;;;;;;;8.90;100.00;99767.34;107428;1272;105157;-79
2023/10/29 00:06:11;;;;;;;19.20;14.60;;;;;;;8.88;100.00;99765.03;107408;1270;99205;-79
2023/10/29 00:08:57;;;;;;;26.10;13.40;;;;;;;8.85;100.00;99761.15;107386;1270;97774;-79
2023/10/29 00:11:42;;;;;;;21.00;13.10;;;;;;;8.83;100.00;99758.00;107411;1270;95566;-79
2023/10/29 00:14:28;;;;;;;20.10;13.40;;;;;;;8.82;100.00;99754.80;107401;1270;95584;-78
2023/10/29 00:17:13;;;;;;;18.00;12.80;;;;;;;8.81;100.00;99754.58;107341;1270;102377;-78
2023/10/29 00:20:06;;;;;;;23.60;13.80;;;;;;;8.80;100.00;99757.15;107368;1271;100354;-79
2023/10/29 00:22:51;;;;;;;21.80;13.20;;;;;;;8.80;100.00;99758.35;107290;1270;98468;-78
2023/10/29 00:25:37;;;;;;;21.60;14.10;;;;;;;8.81;100.00;99760.45;107354;1273;95542;-78
2023/10/29 00:28:22;;;;;;;19.60;14.00;;;;;;;8.81;100.00;99760.09;107405;1273;95777;-78
2023/10/29 00:31:07;;;;;;;22.90;13.80;;;;;;;8.82;100.00;99763.67;107427;1270;101366;-78
2023/10/29 00:33:53;;;;;;;21.30;14.30;;;;;;;8.84;100.00;99757.20;107409;1270;100037;-78
2023/10/29 00:36:38;;;;;;;20.90;15.00;;;;;;;8.86;100.00;99756.05;107394;1272;97758;-79
2023/10/29 00:39:24;;;;;;;23.60;15.50;;;;;;;8.87;100.00;99758.73;107392;1270;95763;-79
2023/10/29 00:42:10;;;;;;;20.70;14.40;;;;;;;8.88;100.00;99761.62;107384;1273;95467;-79
2023/10/29 00:44:55;;;;;;;18.50;14.60;;;;;;;8.89;100.00;99762.98;107371;1270;101353;-79
2023/10/29 00:47:40;;;;;;;22.00;14.10;;;;;;;8.89;100.00;99759.77;107353;1272;99156;-79
2023/10/29 00:50:26;;;;;;;21.60;14.20;;;;;;;8.89;100.00;99762.08;107353;1274;98441;-80
2023/10/29 00:53:12;;;;;;;19.50;13.80;;;;;;;8.91;100.00;99765.08;107474;1270;95748;-80
2023/10/29 00:55:58;;;;;;;22.80;15.10;;;;;;;8.93;100.00;99767.23;107526;1270;95846;-80
2023/10/29 00:58:43;;;;;;;24.60;16.10;;;;;;;8.94;100.00;99775.66;107500;1271;101497;-80
2023/10/29 01:01:29;;;;;;;24.80;16.80;;;;;;;8.95;100.00;99777.52;107486;1270;100616;-80
2023/10/29 01:04:14;;;;;;;22.90;15.90;;;;;;;8.96;100.00;99781.59;107425;1270;99101;-79
2023/10/29 01:06:59;;;;;;;20.30;13.70;;;;;;;8.96;100.00;99782.66;107495;1270;95608;-80
2023/10/29 01:09:46;;;;;;;23.40;14.20;;;;;;;8.97;100.00;99779.39;107463;1270;95174;-80
2023/10/29 01:12:31;;;;;;;22.60;14.90;;;;;;;8.99;100.00;99777.46;107505;1270;102286;-80
2023/10/29 01:15:16;;;;;;;21.90;15.50;;;;;;;9.01;100.00;99775.96;107462;1270;99347;-80
2023/10/29 01:18:02;;;;;;;24.60;14.80;;;;;;;9.04;100.00;99772.64;107429;1270;97746;-80
2023/10/29 01:20:47;;;;;;;24.80;15.40;;;;;;;9.04;100.00;99774.04;107485;1272;95602;-80
2023/10/29 01:23:33;;;;;;;23.80;15.20;;;;;;;9.04;100.00;99773.62;107524;1270;95463;-80
2023/10/29 01:26:19;;;;;;;21.00;15.10;;;;;;;9.06;100.00;99771.95;107502;1270;101456;-80
2023/10/29 01:29:04;;;;;;;21.40;14.70;;;;;;;9.08;100.00;99776.73;107484;1270;99279;-80
2023/10/29 01:31:50;;;;;;;25.30;16.20;;;;;;;9.08;100.00;99775.91;107490;1270;99036;-80
2023/10/29 01:34:35;;;;;;;26.50;17.00;;;;;;;9.10;100.00;99774.16;107432;1272;95526;-80
2023/10/29 01:37:21;;;;;;;24.10;16.70;;;;;;;9.11;100.00;99774.73;107386;1270;95894;-80
2023/10/29 01:40:07;;;;;;;27.40;17.70;;;;;;;9.12;100.00;99770.84;107501;1272;101447;-80
2023/10/29 01:42:52;;;;;;;24.80;18.10;;;;;;;9.13;100.00;99772.98;107492;1270;99197;-80
2023/10/29 01:45:38;;;;;;;28.50;19.00;;;;;;;9.14;100.00;99771.75;107494;1272;97735;-80
2023/10/29 01:48:23;;;;;;;26.00;16.70;;;;;;;9.15;100.00;99774.17;107513;1273;95321;-80
2023/10/29 01:51:09;;;;;;;25.60;17.90;;;;;;;9.17;100.00;99775.71;107503;1273;95638;-80
2023/10/29 01:53:54;;;;;;;25.90;17.30;;;;;;;9.17;100.00;99778.50;107519;1270;102715;-81
2023/10/29 01:56:39;;;;;;;31.40;18.00;;;;;;;9.16;100.00;99787.01;107534;1273;99125;-80
2023/10/29 01:59:25;;;;;;;26.40;16.90;;;;;;;9.14;100.00;99794.80;107419;1272;97883;-80
2023/10/29 02:02:10;;;;;;;27.00;16.80;;;;;;;9.13;100.00;99798.64;107452;1273;95738;-78
2023/10/29 02:04:55;;;;;;;26.80;16.70;;;;;;;9.15;100.00;99797.05;107458;1269;95458;-78
2023/10/29 02:07:41;;;;;;;27.10;17.40;;;;;;;9.15;100.00;99793.55;107459;1273;102691;-79
2023/10/29 02:10:26;;;;;;;28.30;17.40;;;;;;;9.15;100.00;99794.12;107357;1270;99270;-78
2023/10/29 02:13:14;;;;;;;32.10;17.50;;;;;;;9.16;100.00;99789.89;107447;1270;99113;-78
2023/10/29 02:15:59;;;;;;;30.50;17.40;;;;;;;9.17;100.00;99793.14;107433;1270;95608;-78
2023/10/29 02:18:45;;;;;;;28.10;17.40;;;;;;;9.17;100.00;99793.27;107463;1270;95499;-79
2023/10/29 02:21:30;;;;;;;30.20;17.50;;;;;;;9.17;100.00;99782.26;107394;1270;102257;-79
2023/10/29 02:24:16;;;;;;;32.40;18.20;;;;;;;9.15;100.00;99774.38;107472;1273;99864;-79
2023/10/29 02:27:01;;;;;;;29.30;18.00;;;;;;;9.13;100.00;99777.02;107405;1272;97813;-80
2023/10/29 02:29:46;;;;;;;30.50;18.60;;;;;;;9.12;100.00;99780.20;107509;1270;95052;-80
2023/10/29 02:32:31;;;;;;;32.00;17.80;;;;;;;9.12;100.00;99789.00;107532;1269;95757;-79
2023/10/29 02:35:17;;;;;;;27.90;18.00;;;;;;;9.13;100.00;99798.10;107449;1273;101380;-80
2023/10/29 02:38:02;;;;;;;30.10;19.40;;;;;;;9.13;100.00;99807.30;107500;1270;99249;-79
2023/10/29 02:40:47;;;;;;;34.00;19.10;;;;;;;9.13;100.00;99809.31;107426;1272;98320;-80
2023/10/29 02:43:34;;;;;;;30.60;18.20;;;;;;;9.14;100.00;99808.88;107533;1273;95560;-80
2023/10/29 02:46:19;;;;;;;37.40;18.70;;;;;;;9.15;100.00;99804.64;107502;1272;95773;-80
2023/10/29 02:49:04;;;;;;;37.30;20.10;;;;;;;9.14;100.00;99801.67;107525;1270;111258;-80
2023/10/29 02:51:49;;;;;;;34.80;19.50;;;;;;;9.13;100.00;99808.42;107566;1273;99447;-79
2023/10/29 02:54:35;;;;;;;33.70;20.00;;;;;;;9.14;100.00;99813.88;107521;1271;97846;-80
2023/10/29 02:57:20;;;;;;;34.70;19.60;;;;;;;9.14;100.00;99813.30;107517;1273;95536;-79
2023/10/29 03:00:06;;;;;;;35.60;21.10;;;;;;;9.14;100.00;99816.80;107483;1270;96504;-80
2023/10/29 03:02:52;;;;;;;30.50;19.70;;;;;;;9.14;100.00;99811.83;107443;1272;102240;-80
2023/10/29 03:05:37;;;;;;;38.60;21.10;;;;;;;9.14;100.00;99814.67;107552;1272;99103;-80
2023/10/29 03:08:23;;;;;;;37.10;21.20;;;;;;;9.16;100.00;99814.02;107508;1271;99074;-78
2023/10/29 03:11:08;;;;;;;36.00;20.40;;;;;;;9.15;100.00;99810.48;107368;1270;95870;-78
2023/10/29 03:13:53;;;;;;;37.00;21.70;;;;;;;9.15;100.00;99807.52;107359;1270;95561;-79
2023/10/29 03:16:39;;;;;;;34.50;20.80;;;;;;;9.15;100.00;99802.16;107449;1270;101440;-78
2023/10/29 03:19:27;;;;;;;36.40;19.70;;;;;;;9.13;100.00;99795.27;107442;1273;99303;-79
2023/10/29 03:22:13;;;;;;;38.20;20.80;;;;;;;9.09;100.00;99808.80;107236;1272;97746;-79
2023/10/29 03:25:00;;;;;;;35.50;20.60;;;;;;;9.05;100.00;99812.11;107410;1273;95557;-79
2023/10/29 03:27:45;;;;;;;38.20;20.80;;;;;;;9.03;100.00;99806.30;107355;1272;96006;-79
2023/10/29 03:30:31;;;;;;;34.60;20.60;;;;;;;9.02;100.00;99806.20;107454;1272;101530;-79
2023/10/29 03:33:16;;;;;;;37.10;20.10;;;;;;;9.01;100.00;99811.05;107450;1270;100580;-78
2023/10/29 03:36:06;;;;;;;30.90;18.80;;;;;;;9.00;100.00;99821.67;107413;1270;99000;-79
2023/10/29 03:38:51;;;;;;;36.40;22.60;;;;;;;8.98;100.00;99817.02;107433;1273;95976;-79
2023/10/29 03:41:36;;;;;;;34.00;20.60;;;;;;;8.99;100.00;99809.59;107428;1271;95789;-78
2023/10/29 03:44:21;;;;;;;37.90;22.60;;;;;;;8.98;100.00;99800.05;107442;1270;102692;-78
2023/10/29 03:47:07;;;;;;;41.90;24.80;;;;;;;9.00;100.00;99793.29;107419;1270;100212;-78
2023/10/29 03:49:53;;;;;;;42.60;24.60;;;;;;;9.02;100.00;99790.10;107383;1272;98406;-78
2023/10/29 03:52:38;;;;;;;41.10;23.20;;;;;;;9.04;100.00;99787.59;107466;1273;95833;-78
2023/10/29 03:55:23;;;;;;;37.00;22.10;;;;;;;9.05;100.00;99786.95;107499;1271;95476;-79
2023/10/29 03:58:09;;;;;;;44.30;22.20;;;;;;;9.05;100.00;99785.27;107429;1273;102110;-78
2023/10/29 04:00:53;;;;;;;39.70;21.90;;;;;;;9.04;100.00;99781.48;107439;1273;101009;-79
2023/10/29 04:03:39;;;;;;;39.00;21.80;;;;;;;9.04;100.00;99781.52;107420;1272;97738;-79
2023/10/29 04:06:24;;;;;;;39.40;23.20;;;;;;;9.05;100.00;99786.00;107466;1272;95748;-78
2023/10/29 04:09:10;;;;;;;40.20;23.60;;;;;;;9.06;100.00;99793.64;107466;1271;95295;-79
2023/10/29 04:11:55;;;;;;;42.60;21.70;;;;;;;9.06;100.00;99794.72;107417;1270;101371;-79
2023/10/29 04:14:42;;;;;;;42.60;24.60;;;;;;;9.07;100.00;99789.26;107466;1273;99762;-79
2023/10/29 04:17:28;;;;;;;46.90;26.40;;;;;;;9.09;100.00;99785.98;107398;1272;98571;-79
2023/10/29 04:20:13;;;;;;;51.70;26.40;;;;;;;9.09;100.00;99785.05;107428;1270;95590;-78
2023/10/29 04:22:58;;;;;;;48.80;24.60;;;;;;;9.10;100.00;99786.45;107437;1272;95603;-79
2023/10/29 04:25:44;;;;;;;41.10;23.00;;;;;;;9.10;100.00;99791.50;107447;1271;101745;-79
2023/10/29 04:28:29;;;;;;;41.80;22.60;;;;;;;9.09;100.00;99795.31;107452;1270;99137;-79
2023/10/29 04:31:14;;;;;;;43.50;23.80;;;;;;;9.06;100.00;99799.20;107413;1272;97764;-79
2023/10/29 04:34:00;;;;;;;46.00;24.20;;;;;;;9.05;100.00;99801.05;107425;1272;95734;-79
2023/10/29 04:36:48;;;;;;;45.90;25.30;;;;;;;9.08;100.00;99802.39;107450;1270;95799;-79
2023/10/29 04:39:34;;;;;;;44.70;24.20;;;;;;;9.09;100.00;99798.06;107414;1270;102129;-79
2023/10/29 04:42:19;;;;;;;46.40;25.30;;;;;;;9.11;100.00;99794.42;107439;1273;101064;-79
2023/10/29 04:45:05;;;;;;;43.70;23.20;;;;;;;9.14;100.00;99797.15;107417;1273;98700;-79
2023/10/29 04:47:51;;;;;;;47.80;25.10;;;;;;;9.17;100.00;99801.93;107443;1273;95595;-79
2023/10/29 04:50:36;;;;;;;46.60;24.70;;;;;;;9.17;100.00;99806.14;107508;1272;95380;-80
2023/10/29 04:53:21;;;;;;;49.90;24.90;;;;;;;9.18;100.00;99809.84;107467;1270;102281;-79
2023/10/29 04:56:07;;;;;;;42.30;24.70;;;;;;;9.19;100.00;99805.53;107455;1270;99292;-79
2023/10/29 04:58:52;;;;;;;55.10;26.80;;;;;;;9.21;100.00;99801.23;107465;1270;98493;-79
2023/10/29 05:01:37;;;;;;;50.50;26.60;;;;;;;9.24;100.00;99802.35;107440;1272;95766;-79
2023/10/29 05:04:22;;;;;;;48.20;26.30;;;;;;;9.25;100.00;99802.23;107432;1270;95915;-79
2023/10/29 05:07:08;;;;;;;49.40;26.80;;;;;;;9.25;100.00;99803.66;107463;1271;102174;-79
2023/10/29 05:09:53;;;;;;;55.70;27.20;;;;;;;9.25;100.00;99803.14;107488;1271;99889;-79
2023/10/29 05:12:38;;;;;;;49.80;26.30;;;;;;;9.26;100.00;99809.59;107410;1273;97631;-79
2023/10/29 05:15:24;;;;;;;52.70;28.20;;;;;;;9.27;100.00;99808.41;107332;1273;95820;-79
2023/10/29 05:18:09;;;;;;;52.80;27.60;;;;;;;9.29;100.00;99808.02;107524;1273;95776;-80
2023/10/29 05:20:55;;;;;;;46.40;27.70;;;;;;;9.30;100.00;99815.75;107543;1273;101306;-80
2023/10/29 05:23:40;;;;;;;49.20;26.10;;;;;;;9.31;100.00;99823.60;107437;1272;100484;-80
2023/10/29 05:26:25;;;;;;;52.30;28.40;;;;;;;9.32;100.00;99825.33;107503;1273;97813;-80
2023/10/29 05:29:10;;;;;;;53.40;28.10;;;;;;;9.34;100.00;99825.71;107514;1270;95522;-80
2023/10/29 05:31:56;;;;;;;61.40;28.20;;;;;;;9.35;100.00;99828.73;107471;1272;95580;-79
2023/10/29 05:34:41;;;;;;;59.80;27.80;;;;;;;9.36;100.00;99831.45;107482;1270;102645;-79
2023/10/29 05:37:26;;;;;;;56.80;30.00;;;;;;;9.38;100.00;99834.42;107452;1273;100411;-79
2023/10/29 05:40:12;;;;;;;56.10;28.00;;;;;;;9.39;100.00;99832.52;107390;1273;99039;-79
2023/10/29 05:42:57;;;;;;;48.80;27.20;;;;;;;9.40;100.00;99845.80;107460;1272;95541;-80
2023/10/29 05:45:44;;;;;;;56.80;29.80;;;;;;;9.41;100.00;99850.13;107467;1270;95521;-80
2023/10/29 05:48:30;;;;;;;49.80;27.20;;;;;;;9.40;100.00;99858.93;107438;1270;101434;-79
2023/10/29 05:51:18;;;;;;;57.70;29.30;;;;;;;9.40;100.00;99864.85;107443;1271;99258;-79
2023/10/29 05:54:04;;;;;;;58.50;32.00;;;;;;;9.40;100.00;99868.71;107427;1272;97812;-79
2023/10/29 05:56:49;;;;;;;60.80;33.40;;;;;;;9.41;100.00;99865.18;107451;1272;95645;-79
2023/10/29 05:59:35;;;;;;;59.90;31.60;;;;;;;9.43;100.00;99863.75;107473;1273;95545;-79
2023/10/29 06:02:20;;;;;;;63.40;30.60;;;;;;;9.43;100.00;99862.28;107443;1270;101434;-79
2023/10/29 06:05:06;;;;;;;59.90;31.30;;;;;;;9.44;100.00;99864.50;107438;1270;100304;-79
2023/10/29 06:07:51;;;;;;;60.80;29.20;;;;;;;9.44;100.00;99872.64;107399;1272;98059;-78
2023/10/29 06:10:36;;;;;;;66.00;30.70;;;;;;;9.45;100.00;99877.19;107344;1272;96042;-79
2023/10/29 06:13:21;;;;;;;71.50;32.70;;;;;;;9.45;100.00;99876.98;107420;1273;95727;-79
2023/10/29 06:16:08;;;;;;;62.80;32.70;;;;;;;9.47;100.00;99876.57;107438;1271;102781;-79
2023/10/29 06:18:53;;;;;;;65.10;30.70;;;;;;;9.49;100.00;99887.40;107435;1271;100344;-80
2023/10/29 06:21:38;;;;;;;61.30;29.70;;;;;;;9.51;100.00;99890.34;107321;1271;98385;-78
2023/10/29 06:24:24;;;;;;;57.50;29.80;;;;;;;9.54;100.00;99890.47;107428;1271;95604;-78
2023/10/29 06:27:09;;;;;;;64.70;31.20;;;;;;;9.57;100.00;99885.39;107445;1271;95621;-78
2023/10/29 06:29:54;;;;;;;72.80;28.60;;;;;;;9.58;100.00;99883.95;107431;1272;102712;-80
2023/10/29 06:32:40;;;;;;;60.70;27.30;;;;;;;9.59;100.00;99883.88;107465;1272;100566;-80
2023/10/29 06:35:25;;;;;;;58.50;28.60;;;;;;;9.60;100.00;99876.89;107410;1273;99003;-80
2023/10/29 06:38:10;;;;;;;58.10;28.00;;;;;;;9.61;100.00;99869.86;107493;1272;94982;-80
2023/10/29 06:40:56;;;;;;;66.60;28.40;;;;;;;9.63;100.00;99864.45;107515;1275;95592;-79
2023/10/29 06:43:41;;;;;;;59.10;27.20;;;;;;;9.63;100.00;99857.20;107517;1272;102579;-79
2023/10/29 06:46:26;;;;;;;75.00;28.00;;;;;;;9.62;100.00;99853.50;107361;1270;99103;-79
2023/10/29 06:49:12;;;;;;;57.20;28.40;;;;;;;9.63;100.00;99854.73;107459;1273;99526;-81
2023/10/29 06:51:57;;;;;;;61.40;29.20;;;;;;;9.63;100.00;99855.16;107423;1272;95577;-80
2023/10/29 06:54:42;;;;;;;59.80;29.70;;;;;;;9.65;100.00;99854.22;107503;1271;95539;-79
2023/10/29 06:57:28;;;;;;;61.20;29.50;;;;;;;9.69;100.00;99854.43;107519;1270;102108;-79
2023/10/29 07:00:13;;;;;;;58.10;31.00;;;;;;;9.74;100.00;99847.39;107539;1271;99222;-79
2023/10/29 07:02:59;;;;;;;63.30;30.70;;;;;;;9.77;100.00;99849.57;107470;1273;97799;-79
2023/10/29 07:05:44;;;;;;;76.10;32.90;;;;;;;9.80;100.00;99860.40;107532;1270;96100;-79
2023/10/29 07:08:29;;;;;;;70.30;36.90;;;;;;;9.82;100.00;99861.58;107545;1271;95565;-79
2023/10/29 07:11:14;;;;;;;70.70;32.80;;;;;;;9.87;100.00;99854.31;107558;1271;101415;-79
2023/10/29 07:14:00;;;;;;;70.70;34.70;;;;;;;9.93;100.00;99852.80;107530;1272;99276;-79
2023/10/29 07:16:45;;;;;;;65.10;33.70;;;;;;;10.00;100.00;99855.70;107495;1272;97797;-79
2023/10/29 07:19:30;;;;;;;64.60;32.60;;;;;;;10.05;100.00;99857.29;107545;1271;95757;-79
2023/10/29 07:22:16;;;;;;;64.80;33.40;;;;;;;10.11;100.00;99853.70;107490;1271;96007;-79
2023/10/29 07:25:01;;;;;;;53.30;32.00;;;;;;;10.17;100.00;99852.86;107497;1272;101516;-79
2023/10/29 07:27:46;;;;;;;62.50;33.50;;;;;;;10.23;100.00;99860.30;107488;1273;100806;-80
2023/10/29 07:30:32;;;;;;;53.00;30.30;;;;;;;10.28;100.00;99863.38;107443;1273;97874;-79
2023/10/29 07:33:17;;;;;;;58.80;31.70;;;;;;;10.33;100.00;99864.67;107471;1271;95552;-79
2023/10/29 07:36:03;;;;;;;56.80;30.40;;;;;;;10.37;100.00;99861.96;107498;1272;95191;-79
2023/10/29 07:38:48;;;;;;;50.20;29.40;;;;;;;10.42;100.00;99857.98;107522;1274;102643;-79
2023/10/29 07:41:33;;;;;;;53.80;28.90;;;;;;;10.47;100.00;99850.45;107547;1273;100414;-80
2023/10/29 07:44:19;;;;;;;52.30;29.60;;;;;;;10.51;100.00;99848.11;107481;1271;99127;-79
2023/10/29 07:47:08;;;;;;;55.10;30.00;;;;;;;10.55;100.00;99839.91;107455;1273;95561;-79
2023/10/29 07:49:53;;;;;;;49.80;29.50;;;;;;;10.59;100.00;99831.55;107521;1271;95938;-79
2023/10/29 07:52:39;;;;;;;50.50;27.50;;;;;;;10.64;100.00;99829.54;107500;1270;103071;-80
2023/10/29 07:55:25;;;;;;;47.90;27.10;;;;;;;10.72;100.00;99822.41;107339;1270;99329;-78
2023/10/29 07:58:10;;;;;;;40.10;25.40;;;;;;;10.78;100.00;99817.64;107330;1271;99316;-77
2023/10/29 08:00:56;;;;;;;44.70;24.50;;;;;;;10.84;100.00;99815.45;107396;1271;95567;-84
2023/10/29 08:03:44;;;;;;;34.90;22.90;;;;;;;10.90;100.00;99815.34;107244;1271;95456;-90
2023/10/29 08:06:30;;;;;;;30.00;20.80;;;;;;;10.96;100.00;99812.95;107228;1271;102714;-88
2023/10/29 08:09:16;;;;;;;29.00;19.30;;;;;;;11.03;100.00;99813.27;107095;1270;99212;-87
2023/10/29 08:12:02;;;;;;;33.50;19.10;;;;;;;11.09;100.00;99816.40;107446;1271;99235;-88
2023/10/29 08:14:48;;;;;;;22.20;15.10;;;;;;;11.17;100.00;99820.19;107128;1276;95876;-87
2023/10/29 08:17:34;;;;;;;22.90;15.60;;;;;;;11.23;100.00;99820.70;107033;1271;96310;-86
2023/10/29 08:20:20;;;;;;;20.10;13.80;;;;;;;11.29;100.00;99822.21;107342;1273;102440;-87
2023/10/29 08:23:05;;;;;;;20.80;14.20;;;;;;;11.35;100.00;99826.02;107078;1272;100655;-85
2023/10/29 08:25:50;;;;;;;20.60;14.80;;;;;;;11.41;100.00;99828.45;107456;1271;98509;-86
2023/10/29 08:28:36;;;;;;;21.60;12.80;;;;;;;11.48;100.00;99832.89;107201;1278;95571;-88
2023/10/29 08:31:21;;;;;;;16.00;12.00;;;;;;;11.54;100.00;99834.42;107171;1273;95392;-87
2023/10/29 08:34:08;;;;;;;17.40;11.80;;;;;;;11.61;100.00;99832.77;107409;1271;102600;-84
2023/10/29 08:36:54;;;;;;;16.70;11.30;;;;;;;11.69;100.00;99834.99;107095;1273;99972;-88
2023/10/29 08:39:40;;;;;;;16.80;10.80;;;;;;;11.75;100.00;99837.85;107123;1270;98547;-89
2023/10/29 08:42:30;;;;;;;15.70;10.20;;;;;;;11.81;100.00;99835.23;107276;1273;95528;-86
2023/10/29 08:45:15;;;;;;;18.70;9.90;;;;;;;11.86;100.00;99827.65;107237;1272;95568;-86
2023/10/29 08:48:01;;;;;;;15.60;9.50;;;;;;;11.93;100.00;99827.82;107158;1271;102738;-90
2023/10/29 08:50:47;;;;;;;15.50;9.60;;;;;;;11.98;100.00;99828.46;107048;1270;100818;-86
2023/10/29 08:53:33;;;;;;;12.50;8.90;;;;;;;12.04;100.00;99831.23;107107;1273;98768;-88
2023/10/29 08:56:19;;;;;;;13.20;9.10;;;;;;;12.09;100.00;99834.05;107061;1276;95840;-89
2023/10/29 08:59:05;;;;;;;12.30;8.40;;;;;;;12.14;100.00;99833.83;107326;1270;95780;-89
2023/10/29 09:01:52;;;;;;;13.00;8.80;;;;;;;12.17;100.00;99828.81;107154;1274;101460;-90
2023/10/29 09:04:39;;;;;;;14.00;8.70;;;;;;;12.22;100.00;99823.34;107129;1272;99258;-90
2023/10/29 09:07:25;;;;;;;11.90;8.40;;;;;;;12.25;100.00;99822.60;107149;1270;107624;-87
2023/10/29 09:10:11;;;;;;;12.00;7.80;;;;;;;12.29;100.00;99822.98;107404;1272;95498;-88
2023/10/29 09:12:56;;;;;;;16.60;8.50;;;;;;;12.33;100.00;99821.47;107170;1270;95572;-88
2023/10/29 09:15:42;;;;;;;12.50;7.10;;;;;;;12.38;100.00;99817.98;107425;1271;102363;-87
2023/10/29 09:18:28;;;;;;;10.20;7.00;;;;;;;12.43;100.00;99814.88;107142;1270;99124;-85
2023/10/29 09:21:14;;;;;;;12.20;7.60;;;;;;;12.50;100.00;99814.17;107352;1273;106361;-87
2023/10/29 09:24:00;;;;;;;11.20;7.30;;;;;;;12.54;100.00;99812.16;107189;1272;95623;-83
2023/10/29 09:26:45;;;;;;;13.10;7.60;;;;;;;12.59;100.00;99811.74;107374;1273;95620;-84
2023/10/29 09:29:33;;;;;;;20.30;8.80;;;;;;;12.65;100.00;99813.98;107177;1271;102540;-86
2023/10/29 09:32:18;;;;;;;12.40;7.10;;;;;;;12.70;100.00;99816.20;107127;1271;99252;-79
2023/10/29 09:35:04;;;;;;;14.70;7.10;;;;;;;12.76;100.00;99817.14;107379;1273;99069;-78
2023/10/29 09:37:50;;;;;;;13.90;7.30;;;;;;;12.83;100.00;99815.17;107365;1271;95133;-78
2023/10/29 09:40:35;;;;;;;9.80;6.80;;;;;;;12.91;100.00;99817.63;107372;1272;95778;-78
2023/10/29 09:43:26;;;;;;;11.40;7.40;;;;;;;13.01;100.00;99822.70;107375;1270;103399;-78
2023/10/29 09:46:12;;;;;;;19.20;8.00;;;;;;;13.13;100.00;99824.05;107383;1271;99108;-79
2023/10/29 09:49:00;;;;;;;9.00;6.10;;;;;;;13.22;100.00;99821.49;107222;1270;97937;-79
2023/10/29 09:51:46;;;;;;;11.20;5.80;;;;;;;13.27;100.00;99817.94;107453;1271;95620;-79
2023/10/29 09:54:32;;;;;;;11.10;5.90;;;;;;;13.32;100.00;99818.66;107495;1270;95464;-79
2023/10/29 09:57:17;;;;;;;12.10;6.30;;;;;;;13.37;100.00;99814.67;107462;1272;101409;-79
2023/10/29 10:00:03;;;;;;;14.50;6.10;;;;;;;13.42;100.00;99817.19;107461;1270;100291;-79
2023/10/29 10:02:59;;;;;;;10.10;5.60;;;;;;;13.47;100.00;99809.05;107406;1273;99056;-78
2023/10/29 10:05:46;;;;;;;11.40;6.70;;;;;;;13.52;100.00;99809.27;107368;1273;95696;-78
2023/10/29 10:08:33;;;;;;;11.80;5.70;;;;;;;13.58;100.00;99803.38;107400;1273;96134;-79
2023/10/29 10:11:22;;;;;;;9.30;5.40;;;;;;;13.68;100.00;99797.35;107394;1276;102159;-79
2023/10/29 10:14:07;;;;;;;18.50;6.90;;;;;;;13.77;100.00;99794.00;107350;1270;99175;-79
2023/10/29 10:17:09;;;;;;;9.30;5.40;;;;;;;13.84;100.00;99786.66;107454;1271;98847;-79
2023/10/29 10:20:11;;;;;;;11.00;6.10;;;;;;;13.89;100.00;99780.09;107437;1271;95803;-79
2023/10/29 10:23:01;;;;;;;8.80;5.30;;;;;;;13.97;100.00;99770.11;107413;1276;95621;-78
2023/10/29 10:25:46;;;;;;;11.20;5.50;;;;;;;14.02;100.00;99763.14;107427;1270;101362;-79
2023/10/29 10:28:31;;;;;;;8.60;4.70;;;;;;;14.06;100.00;99755.95;107412;1273;99819;-79
2023/10/29 10:31:17;;;;;;;10.20;5.70;;;;;;;14.11;100.00;99758.41;107401;1271;97844;-78
2023/10/29 10:34:10;;;;;;;8.60;5.10;;;;;;;14.17;100.00;99756.52;107426;1272;95589;-79
2023/10/29 10:37:00;;;;;;;7.60;4.20;;;;;;;14.23;100.00;99758.34;107449;1270;95621;-78
2023/10/29 10:39:46;;;;;;;7.30;4.60;;;;;;;14.27;100.00;99758.32;107226;1273;101388;-79
2023/10/29 10:42:31;;;;;;;7.80;4.30;;;;;;;14.33;100.00;99757.63;107300;1276;125724;-79
2023/10/29 10:45:20;;;;;;;7.90;4.30;;;;;;;14.38;100.00;99760.59;107442;1273;97875;-79
2023/10/29 10:48:06;;;;;;;10.60;4.20;;;;;;;14.40;100.00;99762.75;107338;1273;95543;-79
2023/10/29 10:51:02;;;;;;;6.20;3.60;;;;;;;14.43;100.00;99761.36;107450;1271;95921;-90
2023/10/29 10:53:48;;;;;;;5.30;3.80;;;;;;;14.48;100.00;99760.42;107200;1272;101468;-91
2023/10/29 10:56:35;;;;;;;7.30;4.20;;;;;;;14.54;100.00;99755.39;107113;1276;100464;-88
2023/10/29 10:59:22;;;;;;;10.10;4.40;;;;;;;14.58;100.00;99746.64;107205;1276;98557;-81
2023/10/29 11:02:10;;;;;;;11.20;5.30;;;;;;;14.63;100.00;99741.93;107422;1273;96166;-81
2023/10/29 11:04:57;;;;;;;7.30;4.50;;;;;;;14.67;100.00;99735.34;107540;1271;95727;-81
2023/10/29 11:07:44;;;;;;;7.60;3.80;;;;;;;14.72;100.00;99734.85;107487;1273;101384;-81
2023/10/29 11:10:29;;;;;;;7.80;4.30;;;;;;;14.75;100.00;99734.22;107268;1274;99155;-81
2023/10/29 11:13:19;;;;;;;6.60;4.10;;;;;;;14.77;100.00;99730.77;107507;1273;98821;-81
2023/10/29 11:16:22;;;;;;;7.00;4.10;;;;;;;14.79;100.00;99727.88;107505;1270;95039;-81
2023/10/29 11:19:43;;;;;;;8.50;3.30;;;;;;;14.79;100.00;99727.30;107504;1272;96227;-81
2023/10/29 11:22:31;;;;;;;8.30;3.00;;;;;;;14.77;100.00;99721.27;107494;1275;101392;-81
2023/10/29 11:25:27;;;;;;;9.10;3.50;;;;;;;14.75;100.00;99713.71;107513;1272;99094;-81
2023/10/29 11:32:26;;;;;;;9.70;3.30;;;;;;;14.82;100.00;99710.94;102751;1290;635810;-79
2023/10/29 11:35:15;;;;;;;7.20;3.60;;;;;;;14.86;100.00;99707.71;104994;1270;96086;-79
2023/10/29 11:38:02;;;;;;;6.00;3.20;;;;;;;14.90;100.00;99708.14;105950;1259;96287;-79
2023/10/29 11:40:49;;;;;;;6.90;3.20;;;;;;;14.95;100.00;99706.52;106030;1262;98596;-79
2023/10/29 11:43:35;;;;;;;10.30;3.20;;;;;;;14.98;100.00;99703.94;105877;1259;100417;-79
2023/10/29 11:46:20;;;;;;;3.80;2.90;;;;;;;15.03;100.00;99699.75;105815;1260;116425;-79
2023/10/29 11:49:06;;;;;;;7.30;3.10;;;;;;;15.08;100.00;99698.48;105976;1260;96785;-79
2023/10/29 11:51:54;;;;;;;4.60;2.70;;;;;;;15.11;100.00;99696.09;105990;1256;95807;-79
2023/10/29 11:54:40;;;;;;;5.90;2.50;;;;;;;15.16;100.00;99696.02;106196;1260;97336;-81
2023/10/29 11:57:25;;;;;;;4.80;3.20;;;;;;;15.22;100.00;99692.48;105923;1257;99208;-79
2023/10/29 12:00:13;;;;;;;4.30;2.80;;;;;;;15.27;100.00;99687.48;106640;1257;99283;-79
2023/10/29 12:02:58;;;;;;;6.90;2.70;;;;;;;15.33;100.00;99681.66;106427;1257;95969;-80
2023/10/29 12:05:54;;;;;;;4.20;2.80;;;;;;;15.37;100.00;99679.73;106373;1257;95821;-80
2023/10/29 12:08:40;;;;;;;8.00;2.60;;;;;;;15.43;100.00;99679.73;106540;1256;98741;-79
2023/10/29 12:11:25;;;;;;;8.50;2.70;;;;;;;15.47;100.00;99675.42;106427;1260;100404;-81
2023/10/29 12:14:12;;;;;;;5.40;2.50;;;;;;;15.52;100.00;99669.84;106389;1260;97766;-83
2023/10/29 12:16:58;;;;;;;5.50;2.50;;;;;;;15.56;100.00;99661.82;106273;1256;95884;-80
2023/10/29 12:19:45;;;;;;;5.90;2.40;;;;;;;15.58;100.00;99658.58;105970;1262;95902;-79
2023/10/29 12:22:32;;;;;;;4.40;2.60;;;;;;;15.59;100.00;99657.79;106047;1261;98642;-79
2023/10/29 12:25:18;;;;;;;6.10;2.40;;;;;;;15.60;100.00;99657.65;105922;1262;100367;-80
2023/10/29 12:28:04;;;;;;;4.40;2.40;;;;;;;15.61;100.00;99658.52;105757;1256;97853;-79
2023/10/29 12:30:50;;;;;;;9.30;2.80;;;;;;;15.63;100.00;99652.39;105811;1271;95787;-80
2023/10/29 12:33:36;;;;;;;7.00;2.60;;;;;;;15.61;100.00;99650.48;105924;1260;97023;-80
2023/10/29 12:36:23;;;;;;;4.90;2.70;;;;;;;15.60;100.00;99651.80;105909;1260;98667;-79